createdAt,value
2023-03-23T15:58:33.116Z,1.83
2023-03-23T16:01:05.569Z,1.80
2023-03-23T16:03:42.272Z,2.30
2023-03-23T16:06:13.004Z,1.97
2023-03-23T16:08:54.742Z,2.03
2023-03-23T16:11:22.673Z,1.80
2023-03-23T16:13:50.613Z,2.03
2023-03-23T16:16:20.950Z,1.97
2023-03-23T16:18:47.980Z,2.13
2023-03-23T16:21:16.228Z,2.20
2023-03-23T16:23:44.684Z,2.03
2023-03-23T16:26:11.594Z,2.40
2023-03-23T16:28:38.685Z,2.30
2023-03-23T16:31:05.736Z,2.37
2023-03-23T16:33:32.418Z,2.07
2023-03-23T16:35:59.519Z,2.10
2023-03-23T16:38:26.416Z,2.33
2023-03-23T16:40:53.095Z,2.00
2023-03-23T16:43:20.764Z,2.23
2023-03-23T16:45:47.894Z,2.43
2023-03-23T16:48:16.652Z,2.53
2023-03-23T16:50:44.519Z,1.73
2023-03-23T16:53:11.673Z,2.27
2023-03-23T16:55:39.421Z,2.23
2023-03-23T16:58:16.348Z,1.90
2023-03-23T17:00:46.750Z,2.60
2023-03-23T17:03:13.696Z,2.60
2023-03-23T17:05:40.832Z,3.13
2023-03-23T17:08:07.581Z,2.53
2023-03-23T17:10:34.405Z,2.63
2023-03-23T17:13:01.795Z,3.10
2023-03-23T17:15:29.030Z,2.93
2023-03-23T17:17:55.938Z,2.23
2023-03-23T17:20:23.532Z,2.63
2023-03-23T17:22:50.420Z,3.10
2023-03-23T17:25:17.433Z,3.27
2023-03-23T17:27:44.153Z,2.77
2023-03-23T17:30:11.639Z,3.27
2023-03-23T17:32:39.053Z,2.97
2023-03-23T17:35:06.802Z,2.43
2023-03-23T17:37:34.242Z,3.00
2023-03-23T17:40:00.903Z,3.00
2023-03-23T17:42:27.977Z,2.33
2023-03-23T17:44:54.666Z,2.60
2023-03-23T17:47:21.378Z,2.57
2023-03-23T17:49:48.029Z,2.40
2023-03-23T17:52:14.802Z,2.40
2023-03-23T17:54:41.578Z,2.33
2023-03-23T17:57:08.424Z,2.47
2023-03-23T17:59:35.361Z,2.30
2023-03-23T18:02:02.251Z,2.43
2023-03-23T18:04:29.051Z,2.57
2023-03-23T18:06:56.985Z,2.20
2023-03-23T18:09:25.044Z,2.00
2023-03-23T18:11:52.309Z,2.33
2023-03-23T18:14:19.944Z,2.90
2023-03-23T18:16:46.732Z,2.40
2023-03-23T18:19:13.849Z,3.10
2023-03-23T18:21:40.637Z,3.00
2023-03-23T18:24:08.001Z,3.17
2023-03-23T18:26:35.871Z,3.47
2023-03-23T18:29:02.975Z,2.60
2023-03-23T18:31:29.938Z,3.30
2023-03-23T18:33:56.956Z,3.23
2023-03-23T18:36:27.424Z,3.13
2023-03-23T18:38:57.351Z,3.37
2023-03-23T18:41:24.824Z,2.90
2023-03-23T18:43:52.110Z,3.33
2023-03-23T18:46:21.604Z,3.10
2023-03-23T18:48:48.294Z,3.17
2023-03-23T18:51:15.144Z,3.03
2023-03-23T18:53:42.591Z,2.87
2023-03-23T18:56:12.929Z,2.90
2023-03-23T18:58:40.117Z,2.70
2023-03-23T19:01:11.896Z,2.53
2023-03-23T19:03:40.189Z,3.03
2023-03-23T19:06:14.201Z,2.60
2023-03-23T19:08:40.954Z,2.67
2023-03-23T19:11:12.483Z,3.17
2023-03-23T19:13:42.278Z,3.00
2023-03-23T19:16:17.695Z,2.87
2023-03-23T19:18:44.428Z,2.97
2023-03-23T19:21:15.940Z,3.60
2023-03-23T19:23:44.782Z,3.53
2023-03-23T19:26:21.679Z,3.33
2023-03-23T19:29:24.593Z,3.93
2023-03-23T19:31:41.360Z,3.57
2023-03-23T19:34:09.662Z,3.77
2023-03-23T19:36:37.403Z,3.50
2023-03-23T19:39:09.271Z,3.23
2023-03-23T19:41:37.166Z,3.50
2023-03-23T19:44:05.161Z,3.53
2023-03-23T19:46:32.444Z,3.57
2023-03-23T19:48:59.871Z,3.30
2023-03-23T19:51:27.581Z,3.20
2023-03-23T19:53:57.194Z,3.30
2023-03-23T19:56:24.549Z,3.30
2023-03-23T19:58:51.519Z,2.93
2023-03-23T20:01:19.043Z,3.03
2023-03-23T20:03:46.126Z,3.20
2023-03-23T20:06:15.290Z,3.20
2023-03-23T20:08:47.594Z,2.80
2023-03-23T20:11:19.262Z,3.10
2023-03-23T20:13:48.322Z,3.37
2023-03-23T20:16:15.734Z,3.07
2023-03-23T20:18:43.128Z,3.00
2023-03-23T20:21:12.510Z,3.00
2023-03-23T20:23:40.861Z,3.17
2023-03-23T20:26:14.422Z,3.00
2023-03-23T20:28:47.493Z,3.47
2023-03-23T20:31:23.112Z,3.30
2023-03-23T20:34:00.773Z,2.87
2023-03-23T20:36:46.959Z,3.17
2023-03-23T20:39:23.056Z,3.00
2023-03-23T20:41:54.314Z,3.30
2023-03-23T20:44:23.268Z,3.10
2023-03-23T20:46:51.987Z,2.57
2023-03-23T20:49:20.728Z,2.60
2023-03-23T20:51:47.734Z,3.03
2023-03-23T20:54:16.233Z,3.03
2023-03-23T20:56:44.141Z,2.90
2023-03-23T20:59:11.456Z,2.93
2023-03-23T21:01:39.856Z,3.10
2023-03-23T21:04:15.512Z,3.00
2023-03-23T21:06:43.597Z,2.90
2023-03-23T21:09:10.726Z,3.17
2023-03-23T21:11:37.868Z,3.27
2023-03-23T21:14:05.455Z,2.60
2023-03-23T21:16:32.578Z,2.43
2023-03-23T21:18:59.529Z,2.90
2023-03-23T21:21:27.285Z,2.60
2023-03-23T21:23:55.647Z,2.90
2023-03-23T21:26:24.846Z,2.70
2023-03-23T21:28:53.999Z,3.03
2023-03-23T21:31:23.285Z,2.87
2023-03-23T21:33:50.692Z,2.83
2023-03-23T21:36:17.450Z,2.90
2023-03-23T21:38:44.578Z,3.17
2023-03-23T21:41:14.660Z,3.00
2023-03-23T21:43:43.755Z,3.30
2023-03-23T21:46:13.969Z,3.30
2023-03-23T21:48:41.368Z,3.10
2023-03-23T21:51:09.764Z,2.90
2023-03-23T21:53:37.055Z,2.93
2023-03-23T21:56:06.283Z,3.03
2023-03-23T21:58:33.674Z,2.93
2023-03-23T22:01:01.203Z,3.53
2023-03-23T22:03:32.687Z,3.50
2023-03-23T22:06:06.614Z,3.40
2023-03-23T22:08:33.246Z,3.50
2023-03-23T22:11:02.086Z,3.30
2023-03-23T22:13:33.622Z,3.20
2023-03-23T22:16:02.425Z,3.30
2023-03-23T22:18:29.547Z,3.47
2023-03-23T22:20:58.941Z,3.40
2023-03-23T22:23:26.316Z,3.40
2023-03-23T22:25:53.849Z,3.80
2023-03-23T22:28:20.502Z,3.63
2023-03-23T22:30:47.774Z,3.77
2023-03-23T22:33:14.737Z,3.40
2023-03-23T22:35:41.485Z,3.10
2023-03-23T22:38:08.147Z,3.30
2023-03-23T22:40:34.910Z,3.20
2023-03-23T22:43:03.175Z,3.33
2023-03-23T22:45:30.086Z,3.57
2023-03-23T22:47:58.090Z,3.17
2023-03-23T22:50:24.878Z,3.20
2023-03-23T22:52:51.564Z,3.23
2023-03-23T22:55:18.308Z,3.20
2023-03-23T22:57:45.304Z,3.20
2023-03-23T23:00:15.602Z,2.80
2023-03-23T23:02:43.419Z,2.40
2023-03-23T23:05:11.531Z,3.20
2023-03-23T23:07:38.458Z,2.90
2023-03-23T23:10:05.711Z,2.90
2023-03-23T23:12:34.917Z,2.87
2023-03-23T23:15:04.344Z,2.70
2023-03-23T23:17:32.467Z,2.87
2023-03-23T23:19:59.855Z,2.63
2023-03-23T23:22:27.356Z,2.50
2023-03-23T23:24:54.255Z,2.67
2023-03-23T23:27:21.153Z,2.67
2023-03-23T23:29:50.954Z,2.60
2023-03-23T23:32:17.627Z,2.47
2023-03-23T23:34:44.293Z,2.47
2023-03-23T23:37:10.960Z,2.60
2023-03-23T23:39:40.621Z,2.43
2023-03-23T23:42:07.350Z,2.57
2023-03-23T23:44:33.994Z,2.43
2023-03-23T23:47:01.883Z,2.27
2023-03-23T23:49:28.725Z,2.60
2023-03-23T23:51:56.500Z,2.23
2023-03-23T23:54:30.144Z,2.40
2023-03-23T23:56:58.631Z,2.83
2023-03-23T23:59:26.720Z,2.30
